Time;durP1;ratioP1;P1;durP2;ratioP2;P2;SDS_P1;SDS_P2;PMS_P1;PMS_P2;Temp;Humidity;BMP_temperature;BMP_pressure;BME280_temperature;BME280_humidity;BME280_pressure;Samples;Min_cycle;Max_cycle;Signal;HPM_P1;HPM_P2
2023/03/12 00:00:54;;;;;;;4.43;2.67;;;;;;;;;;5125777;28;20027;-45
2023/03/12 00:03:20;;;;;;;4.38;3.05;;;;;;;;;;5115637;28;20035;-44
2023/03/12 00:05:46;;;;;;;4.03;2.70;;;;;;;;;;5103221;28;20659;-45
2023/03/12 00:08:12;;;;;;;4.43;2.50;;;;;;;;;;5104383;28;20028;-44
2023/03/12 00:10:39;;;;;;;4.05;2.80;;;;;;;;;;5116153;28;20037;-45
2023/03/12 00:13:07;;;;;;;4.38;2.80;;;;;;;;;;5124728;28;20510;-44
2023/03/12 00:15:37;;;;;;;2.92;2.42;;;;;;;;;;5125531;27;20109;-44
2023/03/12 00:18:03;;;;;;;3.13;2.22;;;;;;;;;;5124387;27;20098;-48
2023/03/12 00:20:29;;;;;;;3.20;2.42;;;;;;;;;;5123760;28;20027;-44
2023/03/12 00:22:55;;;;;;;2.33;1.98;;;;;;;;;;5124548;27;20031;-45
2023/03/12 00:25:22;;;;;;;2.92;2.15;;;;;;;;;;5125255;28;20084;-45
2023/03/12 00:27:48;;;;;;;2.50;2.20;;;;;;;;;;5128152;27;20513;-45
2023/03/12 00:30:14;;;;;;;2.53;2.10;;;;;;;;;;5127989;27;20027;-45
2023/03/12 00:32:41;;;;;;;2.58;2.17;;;;;;;;;;5127912;27;20506;-44
2023/03/12 00:35:07;;;;;;;2.33;2.03;;;;;;;;;;5123316;27;20515;-44
2023/03/12 00:37:33;;;;;;;2.58;2.03;;;;;;;;;;5109251;27;20580;-45
2023/03/12 00:40:00;;;;;;;2.65;1.90;;;;;;;;;;5109239;28;20055;-44
2023/03/12 00:42:26;;;;;;;2.58;2.00;;;;;;;;;;5109017;28;20452;-44
2023/03/12 00:44:52;;;;;;;2.45;2.13;;;;;;;;;;5109764;28;20055;-44
2023/03/12 00:47:19;;;;;;;1.70;1.60;;;;;;;;;;5109340;28;20510;-44
2023/03/12 00:49:45;;;;;;;1.70;1.60;;;;;;;;;;5108845;28;20043;-44
2023/03/12 00:52:12;;;;;;;2.47;2.05;;;;;;;;;;5108757;27;20027;-43
2023/03/12 00:54:39;;;;;;;2.22;1.90;;;;;;;;;;5108615;28;20036;-44
2023/03/12 00:57:05;;;;;;;2.33;2.03;;;;;;;;;;5108873;28;20114;-44
2023/03/12 00:59:31;;;;;;;2.20;1.60;;;;;;;;;;5108704;28;20034;-45
2023/03/12 01:01:57;;;;;;;1.88;1.73;;;;;;;;;;5108438;28;20019;-44
2023/03/12 01:04:23;;;;;;;3.70;2.40;;;;;;;;;;5108328;28;20034;-44
2023/03/12 06:11:20;;;;;;;3.38;2.40;;;;;;;;;;5123263;27;20027;-45
2023/03/12 06:13:46;;;;;;;2.53;2.10;;;;;;;;;;5129185;27;20118;-45
2023/03/12 06:16:20;;;;;;;2.30;2.10;;;;;;;;;;5129708;27;20015;-44
2023/03/12 06:18:46;;;;;;;2.95;2.40;;;;;;;;;;5129419;27;20027;-45
2023/03/12 06:21:20;;;;;;;3.13;2.60;;;;;;;;;;5129262;27;20031;-46
2023/03/12 06:23:46;;;;;;;2.63;2.40;;;;;;;;;;5129124;27;20499;-45
2023/03/12 06:26:13;;;;;;;2.90;2.35;;;;;;;;;;5128753;27;20033;-47
2023/03/12 06:28:39;;;;;;;3.22;2.15;;;;;;;;;;5129338;27;20035;-45
2023/03/12 06:31:05;;;;;;;3.33;2.38;;;;;;;;;;5129047;27;20097;-45
2023/03/12 06:33:31;;;;;;;2.35;2.10;;;;;;;;;;5129109;27;20019;-44
2023/03/12 06:35:58;;;;;;;3.25;2.33;;;;;;;;;;5128854;27;20019;-44
2023/03/12 06:38:25;;;;;;;2.60;2.40;;;;;;;;;;5129232;27;20038;-45
2023/03/12 06:40:58;;;;;;;3.42;2.50;;;;;;;;;;5127883;27;20076;-45
2023/03/12 06:43:25;;;;;;;2.97;2.30;;;;;;;;;;5128898;27;20026;-44
2023/03/12 06:45:51;;;;;;;2.72;2.17;;;;;;;;;;5129374;27;20029;-44
2023/03/12 06:48:17;;;;;;;2.33;1.85;;;;;;;;;;5123051;27;20103;-44
2023/03/12 06:50:43;;;;;;;2.15;1.92;;;;;;;;;;5125893;27;20034;-45
2023/03/12 06:53:09;;;;;;;2.92;1.70;;;;;;;;;;5132317;27;20027;-44
2023/03/12 06:55:35;;;;;;;2.78;1.95;;;;;;;;;;5129863;27;20031;-45
2023/03/12 06:58:02;;;;;;;2.63;2.00;;;;;;;;;;5128789;27;20023;-44
2023/03/12 07:00:29;;;;;;;2.67;2.13;;;;;;;;;;5129158;27;20019;-44
2023/03/12 07:02:56;;;;;;;2.63;2.03;;;;;;;;;;5129479;27;20035;-44
2023/03/12 07:05:22;;;;;;;3.03;2.15;;;;;;;;;;5129246;27;20402;-45
2023/03/12 07:07:50;;;;;;;3.92;2.67;;;;;;;;;;5129056;27;20497;-45
2023/03/12 07:10:16;;;;;;;3.55;2.50;;;;;;;;;;5128515;27;20031;-45
2023/03/12 07:12:42;;;;;;;3.53;2.47;;;;;;;;;;5129014;27;20388;-44
2023/03/12 07:15:08;;;;;;;2.75;2.25;;;;;;;;;;5128478;27;20023;-45
2023/03/12 07:17:34;;;;;;;3.17;2.30;;;;;;;;;;5128705;27;20072;-45
2023/03/12 07:20:00;;;;;;;2.72;2.20;;;;;;;;;;5128852;27;20023;-45
2023/03/12 07:22:26;;;;;;;2.13;1.77;;;;;;;;;;5128735;27;20019;-45
2023/03/12 07:24:52;;;;;;;2.88;2.25;;;;;;;;;;5128777;27;20054;-45
2023/03/12 07:27:18;;;;;;;3.03;2.35;;;;;;;;;;5128356;27;20045;-44
2023/03/12 07:29:44;;;;;;;4.22;3.40;;;;;;;;;;5128343;27;20031;-45
2023/03/12 07:32:10;;;;;;;3.97;3.13;;;;;;;;;;5128439;27;20079;-44
2023/03/12 07:34:37;;;;;;;4.43;2.95;;;;;;;;;;5128748;27;20015;-46
2023/03/12 07:37:04;;;;;;;2.88;2.13;;;;;;;;;;5125962;27;20461;-44
2023/03/12 07:39:31;;;;;;;2.13;1.80;;;;;;;;;;5128146;27;20051;-45
2023/03/12 07:41:57;;;;;;;2.80;2.20;;;;;;;;;;5128251;27;20023;-46
2023/03/12 07:44:25;;;;;;;2.15;1.83;;;;;;;;;;5128272;27;20052;-44
2023/03/12 07:46:51;;;;;;;2.10;1.90;;;;;;;;;;5128598;27;20450;-44
2023/03/12 07:49:18;;;;;;;1.88;1.45;;;;;;;;;;5128275;27;20522;-47
2023/03/12 07:51:45;;;;;;;1.40;1.20;;;;;;;;;;5128159;27;20031;-46
2023/03/12 07:54:11;;;;;;;1.80;1.50;;;;;;;;;;5128293;28;20023;-44
2023/03/12 07:56:37;;;;;;;1.48;1.35;;;;;;;;;;5127713;28;20402;-46
2023/03/12 07:59:03;;;;;;;1.42;1.27;;;;;;;;;;5126458;28;20015;-45
2023/03/12 08:01:31;;;;;;;1.10;1.00;;;;;;;;;;5127832;28;20031;-45
2023/03/12 08:03:57;;;;;;;1.40;1.00;;;;;;;;;;5127907;28;20033;-45
2023/03/12 08:06:23;;;;;;;0.82;0.82;;;;;;;;;;5128439;28;20106;-44
2023/03/12 08:08:50;;;;;;;1.52;1.00;;;;;;;;;;5128095;28;20094;-45
2023/03/12 08:11:17;;;;;;;1.15;0.90;;;;;;;;;;5125762;28;20031;-45
2023/03/12 08:13:44;;;;;;;2.50;1.00;;;;;;;;;;5107164;28;20394;-45
2023/03/12 08:16:11;;;;;;;1.15;1.05;;;;;;;;;;5104075;28;20028;-44
2023/03/12 08:18:38;;;;;;;1.00;0.90;;;;;;;;;;5085294;28;20020;-47
2023/03/12 08:21:04;;;;;;;0.70;0.70;;;;;;;;;;5085743;28;20510;-45
2023/03/12 08:23:30;;;;;;;1.00;0.85;;;;;;;;;;5085292;28;20028;-45
2023/03/12 08:25:58;;;;;;;0.70;0.70;;;;;;;;;;5094974;28;20036;-45
2023/03/12 08:28:24;;;;;;;0.70;0.70;;;;;;;;;;5105383;28;20393;-45
2023/03/12 08:30:51;;;;;;;1.30;1.15;;;;;;;;;;5105597;28;20102;-45
2023/03/12 08:33:18;;;;;;;0.80;0.80;;;;;;;;;;5105549;28;20633;-46
2023/03/12 08:35:45;;;;;;;1.42;0.90;;;;;;;;;;5105522;28;20031;-46
2023/03/12 08:38:11;;;;;;;1.30;0.90;;;;;;;;;;5105151;28;20422;-44
2023/03/12 08:40:38;;;;;;;0.85;0.82;;;;;;;;;;5105466;28;20067;-46
2023/03/12 08:43:06;;;;;;;1.10;1.00;;;;;;;;;;5105359;28;20028;-44
2023/03/12 08:45:35;;;;;;;1.60;1.08;;;;;;;;;;5107377;28;20035;-46
2023/03/12 08:48:01;;;;;;;2.85;1.30;;;;;;;;;;5108615;28;20023;-45
2023/03/12 08:50:29;;;;;;;1.67;1.02;;;;;;;;;;5110421;28;20028;-46
2023/03/12 08:52:55;;;;;;;0.90;0.90;;;;;;;;;;5110282;28;20494;-46
2023/03/12 08:55:22;;;;;;;0.93;0.82;;;;;;;;;;5109845;28;20416;-45
2023/03/12 08:57:48;;;;;;;0.70;0.70;;;;;;;;;;5110072;28;20023;-45
2023/03/12 09:00:15;;;;;;;1.00;0.70;;;;;;;;;;5110221;27;20034;-46
2023/03/12 09:02:44;;;;;;;0.82;0.80;;;;;;;;;;5110307;28;20019;-45
2023/03/12 09:05:11;;;;;;;1.23;1.02;;;;;;;;;;5110137;28;20023;-45
2023/03/12 09:07:37;;;;;;;1.63;1.08;;;;;;;;;;5110159;28;20024;-45
2023/03/12 09:10:04;;;;;;;2.53;1.58;;;;;;;;;;5110471;28;20080;-45
2023/03/12 09:12:30;;;;;;;1.73;1.40;;;;;;;;;;5109806;28;20644;-48
2023/03/12 09:14:56;;;;;;;1.67;1.20;;;;;;;;;;5110278;28;20075;-44
2023/03/12 09:17:22;;;;;;;2.03;1.55;;;;;;;;;;5109871;28;20483;-48
2023/03/12 09:19:48;;;;;;;8.57;4.97;;;;;;;;;;5109537;28;20019;-46
2023/03/12 09:22:14;;;;;;;6.90;4.13;;;;;;;;;;5109258;28;20399;-45
2023/03/12 09:24:41;;;;;;;9.10;4.93;;;;;;;;;;5109584;28;20039;-44
2023/03/12 09:27:07;;;;;;;6.25;3.92;;;;;;;;;;5109531;28;20666;-44
2023/03/12 09:29:33;;;;;;;6.32;3.58;;;;;;;;;;5110578;28;20016;-44
2023/03/12 09:31:59;;;;;;;6.60;3.58;;;;;;;;;;5109257;28;20024;-46
2023/03/12 09:34:25;;;;;;;5.35;2.90;;;;;;;;;;5109759;28;20497;-44
2023/03/12 09:36:51;;;;;;;5.88;2.88;;;;;;;;;;5108936;28;20436;-45
2023/03/12 09:39:19;;;;;;;4.13;2.30;;;;;;;;;;5109469;28;20027;-45
2023/03/12 09:41:46;;;;;;;4.80;2.63;;;;;;;;;;5107132;28;20043;-44
2023/03/12 09:44:18;;;;;;;3.78;2.38;;;;;;;;;;5105836;28;20035;-44
2023/03/12 09:46:45;;;;;;;5.40;2.25;;;;;;;;;;5107523;28;20756;-45
2023/03/12 09:49:17;;;;;;;5.70;1.98;;;;;;;;;;5108551;28;20098;-44
2023/03/12 09:51:45;;;;;;;5.45;1.73;;;;;;;;;;5106981;28;20059;-45
2023/03/12 09:54:26;;;;;;;5.20;1.70;;;;;;;;;;5087383;28;20043;-45
2023/03/12 09:56:55;;;;;;;3.10;1.50;;;;;;;;;;5108853;28;20031;-45
2023/03/12 09:59:21;;;;;;;3.78;1.30;;;;;;;;;;5107630;28;20107;-48
2023/03/12 10:01:51;;;;;;;3.00;1.20;;;;;;;;;;5109044;28;20028;-45
2023/03/12 10:04:35;;;;;;;3.00;1.50;;;;;;;;;;5108902;28;20032;-45
2023/03/12 10:07:02;;;;;;;3.85;1.35;;;;;;;;;;5089201;28;20089;-44
2023/03/12 10:09:37;;;;;;;4.47;1.35;;;;;;;;;;5092308;27;20050;-44
2023/03/12 10:12:07;;;;;;;4.82;1.30;;;;;;;;;;5109096;27;20473;-46
2023/03/12 10:14:33;;;;;;;2.63;1.25;;;;;;;;;;5101191;28;20036;-47
2023/03/12 10:17:06;;;;;;;2.40;0.98;;;;;;;;;;5088327;28;20031;-47
2023/03/12 10:19:43;;;;;;;1.85;0.90;;;;;;;;;;5108405;28;20395;-44
2023/03/12 10:22:18;;;;;;;1.67;0.90;;;;;;;;;;5108658;28;20739;-48
2023/03/12 10:25:07;;;;;;;0.98;0.80;;;;;;;;;;5109074;28;20084;-47
2023/03/12 10:27:38;;;;;;;1.13;0.80;;;;;;;;;;5084597;28;20035;-44
2023/03/12 10:30:13;;;;;;;1.60;0.63;;;;;;;;;;5102590;28;20032;-45
2023/03/12 10:32:41;;;;;;;0.90;0.68;;;;;;;;;;5103743;28;20023;-45
2023/03/12 10:35:14;;;;;;;2.25;0.55;;;;;;;;;;5102808;28;20028;-44
2023/03/12 10:37:52;;;;;;;1.10;0.57;;;;;;;;;;5106274;28;20024;-45
2023/03/12 10:40:21;;;;;;;1.98;0.70;;;;;;;;;;5103745;28;20110;-45
2023/03/12 10:42:47;;;;;;;1.27;0.60;;;;;;;;;;5108842;28;20034;-45
2023/03/12 10:45:20;;;;;;;1.65;0.55;;;;;;;;;;5108135;28;20023;-46
2023/03/12 10:47:50;;;;;;;1.40;0.70;;;;;;;;;;5089895;28;20054;-44
2023/03/12 10:50:17;;;;;;;1.08;0.60;;;;;;;;;;5108486;28;20032;-47
2023/03/12 10:52:46;;;;;;;1.95;1.08;;;;;;;;;;5107777;28;20024;-47
2023/03/12 10:55:28;;;;;;;2.95;1.00;;;;;;;;;;5085889;28;20047;-46
2023/03/12 10:57:55;;;;;;;1.02;0.63;;;;;;;;;;5099604;28;20394;-47
2023/03/12 11:00:23;;;;;;;1.55;0.75;;;;;;;;;;5107619;28;20055;-45
2023/03/12 11:03:02;;;;;;;2.35;0.70;;;;;;;;;;5106825;28;20027;-45
2023/03/12 11:05:35;;;;;;;1.88;0.75;;;;;;;;;;5107594;28;20498;-47
2023/03/12 11:08:02;;;;;;;1.90;0.73;;;;;;;;;;5104161;28;20031;-47
2023/03/12 11:10:41;;;;;;;0.68;0.60;;;;;;;;;;5107345;28;20030;-45
2023/03/12 11:13:27;;;;;;;2.90;0.90;;;;;;;;;;5122858;27;20094;-44
2023/03/12 11:15:53;;;;;;;1.67;0.65;;;;;;;;;;5129191;27;20094;-46
2023/03/12 11:18:31;;;;;;;1.95;0.70;;;;;;;;;;5129506;27;20524;-44
2023/03/12 11:21:17;;;;;;;2.20;0.50;;;;;;;;;;5125066;27;20056;-44
2023/03/12 11:24:03;;;;;;;2.38;0.65;;;;;;;;;;5088383;28;20074;-45
2023/03/12 11:26:38;;;;;;;1.27;0.70;;;;;;;;;;5093467;28;20024;-45
2023/03/12 11:29:06;;;;;;;1.10;0.50;;;;;;;;;;5101615;27;20031;-45
2023/03/12 11:31:38;;;;;;;0.77;0.50;;;;;;;;;;5109873;27;20084;-45
2023/03/12 11:34:08;;;;;;;1.77;0.68;;;;;;;;;;5108183;28;20026;-46
2023/03/12 11:36:39;;;;;;;1.33;0.70;;;;;;;;;;5098871;28;20052;-44
2023/03/12 11:39:05;;;;;;;2.17;0.60;;;;;;;;;;5099939;28;20047;-45
2023/03/12 11:41:50;;;;;;;2.03;0.60;;;;;;;;;;5105168;28;20055;-45
2023/03/12 11:44:16;;;;;;;1.25;0.68;;;;;;;;;;5107159;28;20024;-44
2023/03/12 11:46:54;;;;;;;1.40;0.60;;;;;;;;;;5107805;28;20034;-46
2023/03/12 11:49:20;;;;;;;1.98;0.82;;;;;;;;;;5106358;28;20035;-45
2023/03/12 11:51:46;;;;;;;1.83;0.80;;;;;;;;;;5097974;28;20089;-46
2023/03/12 11:54:25;;;;;;;1.48;0.73;;;;;;;;;;5087304;28;20036;-44
2023/03/12 11:56:56;;;;;;;2.63;0.90;;;;;;;;;;5096653;28;20091;-44
2023/03/12 11:59:22;;;;;;;1.10;0.80;;;;;;;;;;5090103;28;20472;-44
2023/03/12 12:01:54;;;;;;;1.92;0.80;;;;;;;;;;5088386;28;20036;-46
2023/03/12 12:04:43;;;;;;;2.63;0.88;;;;;;;;;;5087640;28;20463;-44
2023/03/12 12:07:26;;;;;;;1.83;0.60;;;;;;;;;;5102936;28;20028;-44
2023/03/12 12:10:06;;;;;;;1.50;1.00;;;;;;;;;;5106832;28;20104;-45
2023/03/12 12:12:51;;;;;;;1.58;0.70;;;;;;;;;;5108033;28;20039;-45
2023/03/12 12:15:17;;;;;;;1.58;0.68;;;;;;;;;;5107417;28;20027;-44
2023/03/12 12:17:55;;;;;;;2.40;0.80;;;;;;;;;;5124821;28;20038;-44
2023/03/12 12:20:40;;;;;;;0.70;0.47;;;;;;;;;;5127684;28;20035;-45
2023/03/12 12:23:09;;;;;;;3.28;1.00;;;;;;;;;;5130004;27;20065;-45
2023/03/12 12:25:58;;;;;;;2.17;0.95;;;;;;;;;;5132331;27;20051;-45
2023/03/12 12:28:56;;;;;;;1.75;0.90;;;;;;;;;;5124137;27;20050;-46
2023/03/12 12:31:30;;;;;;;1.50;0.73;;;;;;;;;;5097755;27;20147;-47
2023/03/12 12:34:14;;;;;;;1.33;0.53;;;;;;;;;;5131524;27;20093;-44
2023/03/12 12:36:44;;;;;;;2.30;0.70;;;;;;;;;;5129985;27;20038;-44
2023/03/12 12:39:14;;;;;;;1.38;0.63;;;;;;;;;;5131335;27;20355;-44
2023/03/12 12:41:50;;;;;;;1.95;0.70;;;;;;;;;;5129069;27;20493;-44
2023/03/12 12:44:19;;;;;;;1.27;0.57;;;;;;;;;;5131544;27;20031;-45
2023/03/12 12:46:51;;;;;;;3.30;1.20;;;;;;;;;;5131773;27;20083;-44
2023/03/12 12:49:40;;;;;;;1.70;0.73;;;;;;;;;;5130842;27;20034;-44
2023/03/12 12:52:08;;;;;;;1.67;0.70;;;;;;;;;;5123590;27;20050;-45
2023/03/12 12:54:53;;;;;;;1.13;0.75;;;;;;;;;;5131498;27;20039;-44
2023/03/12 12:57:22;;;;;;;1.90;0.90;;;;;;;;;;5129809;27;20087;-45
2023/03/12 12:59:57;;;;;;;1.75;0.80;;;;;;;;;;5131404;27;20107;-45
2023/03/12 13:02:28;;;;;;;1.48;0.60;;;;;;;;;;5131844;27;20023;-44
2023/03/12 13:04:56;;;;;;;1.58;0.60;;;;;;;;;;5131672;27;20019;-44
2023/03/12 13:07:22;;;;;;;3.30;1.00;;;;;;;;;;5131177;27;20031;-46
2023/03/12 13:09:50;;;;;;;2.30;1.00;;;;;;;;;;5131465;27;20027;-45
2023/03/12 13:12:33;;;;;;;2.17;1.17;;;;;;;;;;5130299;27;20028;-45
2023/03/12 13:15:00;;;;;;;5.67;1.60;;;;;;;;;;5132086;27;20573;-46
2023/03/12 13:17:55;;;;;;;1.50;0.80;;;;;;;;;;5131350;27;20019;-44
2023/03/12 13:20:23;;;;;;;1.73;0.80;;;;;;;;;;5131075;27;20035;-45
2023/03/12 13:23:01;;;;;;;2.20;0.98;;;;;;;;;;5131411;27;20051;-45
2023/03/12 13:25:47;;;;;;;1.42;0.70;;;;;;;;;;5131759;27;20073;-44
2023/03/12 13:28:25;;;;;;;2.58;1.10;;;;;;;;;;5128808;27;20023;-45
2023/03/12 13:30:52;;;;;;;1.65;1.10;;;;;;;;;;5129094;27;20023;-44
2023/03/12 13:33:20;;;;;;;1.40;0.60;;;;;;;;;;5128795;27;20047;-47
2023/03/12 13:36:27;;;;;;;1.38;0.70;;;;;;;;;;5126528;27;20068;-47
2023/03/12 13:39:08;;;;;;;1.38;0.90;;;;;;;;;;5020516;28;20102;-44
2023/03/12 13:41:35;;;;;;;2.05;0.77;;;;;;;;;;5018312;28;20099;-46
2023/03/12 13:44:22;;;;;;;1.20;0.80;;;;;;;;;;5068283;28;20039;-45
2023/03/12 13:46:49;;;;;;;0.70;0.50;;;;;;;;;;5107189;27;20519;-45
2023/03/12 13:49:17;;;;;;;1.85;0.85;;;;;;;;;;5127386;27;20039;-44
2023/03/12 13:51:44;;;;;;;1.25;0.70;;;;;;;;;;5127069;27;20062;-45
2023/03/12 13:54:16;;;;;;;1.05;0.73;;;;;;;;;;5128095;27;20030;-46
2023/03/12 13:56:45;;;;;;;0.70;0.45;;;;;;;;;;5123105;27;20031;-44
2023/03/12 13:59:18;;;;;;;1.40;0.75;;;;;;;;;;5125065;27;20129;-44
2023/03/12 14:01:49;;;;;;;0.88;0.50;;;;;;;;;;5125206;27;20035;-43
2023/03/12 14:04:21;;;;;;;1.48;0.60;;;;;;;;;;5127839;27;20033;-45
2023/03/12 14:06:55;;;;;;;0.68;0.45;;;;;;;;;;5127194;27;20038;-44
2023/03/12 14:09:46;;;;;;;1.70;0.75;;;;;;;;;;5127461;27;20023;-44
2023/03/12 14:12:12;;;;;;;1.67;0.80;;;;;;;;;;5127620;27;20095;-43
2023/03/12 14:14:50;;;;;;;1.92;1.00;;;;;;;;;;5127959;27;20031;-44
2023/03/12 14:17:18;;;;;;;2.33;0.80;;;;;;;;;;5127982;27;20030;-45
2023/03/12 14:19:46;;;;;;;1.63;0.80;;;;;;;;;;5127916;27;20047;-45
2023/03/12 14:22:12;;;;;;;0.90;0.77;;;;;;;;;;5127722;27;20023;-45
2023/03/12 14:24:54;;;;;;;1.40;0.70;;;;;;;;;;5127542;27;20023;-44
2023/03/12 14:27:23;;;;;;;0.98;0.80;;;;;;;;;;5127675;27;20062;-44
2023/03/12 14:29:50;;;;;;;2.10;0.82;;;;;;;;;;5127597;27;20031;-45
2023/03/12 14:32:21;;;;;;;1.83;0.98;;;;;;;;;;5127526;27;20019;-47
2023/03/12 14:34:53;;;;;;;1.13;0.70;;;;;;;;;;5127560;27;20023;-45
2023/03/12 14:37:31;;;;;;;0.70;0.70;;;;;;;;;;5127523;27;20023;-45
2023/03/12 14:39:57;;;;;;;0.77;0.50;;;;;;;;;;5126989;27;20027;-45
2023/03/12 14:42:27;;;;;;;1.15;0.60;;;;;;;;;;5127406;27;20032;-45
2023/03/12 14:45:14;;;;;;;0.80;0.50;;;;;;;;;;5126929;27;20076;-44
2023/03/12 14:47:44;;;;;;;0.93;0.50;;;;;;;;;;5127064;27;20066;-44
2023/03/12 14:50:17;;;;;;;1.90;0.70;;;;;;;;;;5127092;27;20034;-45
2023/03/12 14:52:43;;;;;;;1.30;0.75;;;;;;;;;;5127224;27;20023;-45
2023/03/12 14:55:14;;;;;;;1.08;0.40;;;;;;;;;;5126798;27;20023;-45
2023/03/12 14:57:40;;;;;;;0.73;0.50;;;;;;;;;;5127214;27;20027;-45
2023/03/12 15:00:13;;;;;;;0.82;0.50;;;;;;;;;;5127020;27;20431;-45
2023/03/12 15:02:40;;;;;;;0.93;0.60;;;;;;;;;;5127258;27;20024;-43
2023/03/12 15:05:15;;;;;;;0.50;0.50;;;;;;;;;;5127062;27;20398;-45
2023/03/12 15:07:42;;;;;;;0.80;0.50;;;;;;;;;;5127028;27;20410;-45
2023/03/12 15:10:19;;;;;;;0.55;0.45;;;;;;;;;;5126253;27;20041;-45
2023/03/12 15:12:46;;;;;;;0.70;0.50;;;;;;;;;;5126726;27;20046;-44
2023/03/12 15:15:31;;;;;;;0.82;0.57;;;;;;;;;;5126843;27;20019;-44
2023/03/12 15:17:58;;;;;;;1.10;0.60;;;;;;;;;;5126724;27;20026;-46
2023/03/12 15:20:25;;;;;;;0.95;0.40;;;;;;;;;;5126664;27;20101;-46
2023/03/12 15:22:51;;;;;;;0.65;0.47;;;;;;;;;;5126534;27;20057;-44
2023/03/12 15:25:21;;;;;;;0.88;0.65;;;;;;;;;;5126644;27;20502;-45
2023/03/12 15:27:47;;;;;;;0.75;0.50;;;;;;;;;;5126607;27;20659;-44
2023/03/12 15:30:27;;;;;;;0.30;0.30;;;;;;;;;;5126190;27;20015;-45
2023/03/12 15:33:05;;;;;;;0.40;0.40;;;;;;;;;;5126419;27;20082;-47
2023/03/12 15:35:32;;;;;;;0.65;0.40;;;;;;;;;;5127107;27;20019;-44
2023/03/12 15:37:58;;;;;;;1.02;0.40;;;;;;;;;;5126842;27;20031;-45
2023/03/12 15:40:26;;;;;;;0.50;0.50;;;;;;;;;;5126235;27;20486;-45
2023/03/12 15:42:58;;;;;;;1.33;0.57;;;;;;;;;;5126482;27;20417;-46
2023/03/12 15:45:36;;;;;;;1.25;0.43;;;;;;;;;;5126355;27;20023;-45
2023/03/12 15:48:05;;;;;;;0.75;0.35;;;;;;;;;;5126647;27;20110;-44
2023/03/12 15:50:40;;;;;;;0.95;0.40;;;;;;;;;;5126758;27;20019;-44
2023/03/12 15:53:12;;;;;;;0.98;0.60;;;;;;;;;;5126100;27;20038;-45
2023/03/12 15:55:40;;;;;;;1.42;0.60;;;;;;;;;;5126259;27;20312;-45
2023/03/12 15:58:25;;;;;;;1.38;0.60;;;;;;;;;;5125048;27;20610;-46
2023/03/12 16:00:51;;;;;;;0.45;0.40;;;;;;;;;;5126290;28;20566;-45
2023/03/12 16:03:20;;;;;;;0.70;0.45;;;;;;;;;;5126122;27;20118;-46
2023/03/12 16:05:48;;;;;;;0.35;0.35;;;;;;;;;;5126368;28;20075;-46
2023/03/12 16:08:18;;;;;;;1.00;0.60;;;;;;;;;;5125751;28;20027;-45
2023/03/12 16:10:44;;;;;;;0.57;0.50;;;;;;;;;;5125929;28;20027;-45
2023/03/12 16:13:12;;;;;;;0.40;0.30;;;;;;;;;;5126163;28;20107;-45
2023/03/12 16:15:40;;;;;;;0.43;0.40;;;;;;;;;;5126137;28;20023;-44
2023/03/12 16:18:10;;;;;;;0.50;0.50;;;;;;;;;;5125906;28;20031;-45
2023/03/12 16:20:36;;;;;;;0.40;0.40;;;;;;;;;;5125930;28;20023;-45
2023/03/12 16:23:03;;;;;;;1.05;0.52;;;;;;;;;;5125728;28;20046;-45
2023/03/12 16:25:29;;;;;;;0.40;0.40;;;;;;;;;;5126666;28;20015;-45
2023/03/12 16:27:56;;;;;;;0.30;0.30;;;;;;;;;;5126016;28;20557;-45
2023/03/12 16:30:27;;;;;;;0.30;0.30;;;;;;;;;;5125864;28;20026;-46
2023/03/12 16:32:53;;;;;;;0.60;0.52;;;;;;;;;;5125858;28;20034;-46
2023/03/12 16:35:19;;;;;;;0.77;0.47;;;;;;;;;;5125557;28;20019;-44
2023/03/12 16:37:45;;;;;;;1.13;0.47;;;;;;;;;;5125671;28;20027;-45
2023/03/12 16:40:12;;;;;;;1.40;0.60;;;;;;;;;;5125582;28;20482;-45
2023/03/12 16:42:46;;;;;;;0.40;0.40;;;;;;;;;;5125962;28;20102;-45
2023/03/12 16:45:13;;;;;;;0.93;0.50;;;;;;;;;;5125670;28;20027;-46
2023/03/12 16:47:40;;;;;;;0.40;0.40;;;;;;;;;;5125650;27;20026;-46
2023/03/12 16:50:12;;;;;;;0.38;0.38;;;;;;;;;;5125294;27;20023;-45
2023/03/12 16:52:39;;;;;;;0.68;0.40;;;;;;;;;;5125717;28;20054;-45
2023/03/12 16:55:06;;;;;;;0.57;0.40;;;;;;;;;;5125753;28;20027;-45
2023/03/12 16:57:36;;;;;;;0.50;0.45;;;;;;;;;;5126299;28;20553;-45
2023/03/12 17:00:06;;;;;;;0.63;0.60;;;;;;;;;;5125425;28;20520;-44
2023/03/12 17:02:33;;;;;;;0.60;0.50;;;;;;;;;;5125208;28;20015;-43
2023/03/12 17:04:59;;;;;;;0.77;0.50;;;;;;;;;;5124986;27;20027;-46
2023/03/12 17:07:25;;;;;;;1.27;0.77;;;;;;;;;;5125433;28;20038;-46
2023/03/12 17:09:51;;;;;;;2.50;0.70;;;;;;;;;;5128077;27;20049;-47
2023/03/12 17:12:37;;;;;;;1.00;0.70;;;;;;;;;;5128971;27;20035;-46
2023/03/12 17:15:05;;;;;;;1.38;0.90;;;;;;;;;;5129054;27;20436;-45
2023/03/12 17:17:31;;;;;;;1.25;0.88;;;;;;;;;;5129798;27;20057;-45
2023/03/12 17:19:58;;;;;;;1.08;0.95;;;;;;;;;;5129365;27;20098;-45
2023/03/12 17:22:26;;;;;;;1.15;1.00;;;;;;;;;;5128974;27;20041;-45
2023/03/12 17:24:53;;;;;;;1.00;0.90;;;;;;;;;;5129023;27;20031;-44
2023/03/12 17:27:19;;;;;;;1.33;0.90;;;;;;;;;;5128833;27;20482;-45
2023/03/12 17:29:46;;;;;;;1.20;0.95;;;;;;;;;;5128650;27;20027;-44
2023/03/12 17:32:12;;;;;;;1.58;1.20;;;;;;;;;;5128735;27;20054;-47
2023/03/12 17:34:39;;;;;;;1.35;1.10;;;;;;;;;;5128452;27;20077;-44
2023/03/12 17:37:05;;;;;;;1.55;1.10;;;;;;;;;;5128565;27;20023;-45
2023/03/12 17:39:31;;;;;;;1.88;1.00;;;;;;;;;;5128793;27;20110;-46
2023/03/12 17:41:57;;;;;;;1.55;1.17;;;;;;;;;;5128923;27;20490;-45
2023/03/12 17:44:23;;;;;;;1.27;1.13;;;;;;;;;;5128407;27;20027;-45
2023/03/12 17:46:49;;;;;;;1.65;1.30;;;;;;;;;;5128385;27;20023;-45
2023/03/12 17:49:15;;;;;;;1.85;1.27;;;;;;;;;;5128075;27;20051;-45
2023/03/12 17:51:41;;;;;;;1.88;1.30;;;;;;;;;;5128328;27;20050;-45
2023/03/12 17:54:08;;;;;;;2.45;1.40;;;;;;;;;;5128187;27;20208;-44
2023/03/12 17:56:34;;;;;;;1.45;1.20;;;;;;;;;;5128277;27;20048;-45
2023/03/12 17:59:01;;;;;;;1.27;0.82;;;;;;;;;;5128577;27;20024;-45
2023/03/12 18:01:27;;;;;;;1.30;1.10;;;;;;;;;;5128721;27;20110;-45
2023/03/12 18:03:53;;;;;;;1.60;1.10;;;;;;;;;;5128274;27;20579;-45
2023/03/12 18:06:19;;;;;;;2.88;1.77;;;;;;;;;;5126501;27;20015;-46
2023/03/12 18:08:45;;;;;;;3.67;2.20;;;;;;;;;;5128259;27;20099;-45
2023/03/12 18:11:11;;;;;;;4.10;2.72;;;;;;;;;;5122973;27;20023;-44
2023/03/12 18:13:37;;;;;;;4.90;3.08;;;;;;;;;;5109055;28;20044;-44
2023/03/12 18:16:03;;;;;;;4.28;3.25;;;;;;;;;;5109529;28;20054;-46
2023/03/12 18:18:29;;;;;;;6.97;4.25;;;;;;;;;;5108735;28;20501;-45
2023/03/12 18:20:55;;;;;;;10.10;5.55;;;;;;;;;;5108079;28;20024;-44
2023/03/12 18:23:22;;;;;;;11.43;6.65;;;;;;;;;;5108919;28;20036;-46
2023/03/12 18:25:48;;;;;;;11.73;7.40;;;;;;;;;;5108800;28;20035;-45
2023/03/12 18:28:15;;;;;;;9.70;5.65;;;;;;;;;;5121545;27;20504;-45
2023/03/12 18:30:41;;;;;;;7.00;4.18;;;;;;;;;;5126597;27;20494;-47
2023/03/12 18:33:07;;;;;;;6.07;4.05;;;;;;;;;;5127647;27;20031;-44
2023/03/12 18:35:33;;;;;;;6.43;3.72;;;;;;;;;;5128051;27;20054;-45
2023/03/12 18:38:00;;;;;;;7.88;4.55;;;;;;;;;;5128264;27;20067;-45
2023/03/12 18:40:27;;;;;;;7.13;4.95;;;;;;;;;;5127801;27;20051;-45
2023/03/12 18:42:56;;;;;;;7.18;4.35;;;;;;;;;;5109786;27;20080;-45
2023/03/12 18:45:23;;;;;;;5.90;3.95;;;;;;;;;;5127338;27;20114;-48
2023/03/12 18:47:49;;;;;;;6.53;4.30;;;;;;;;;;5127204;27;20232;-45
2023/03/12 18:50:16;;;;;;;8.23;4.38;;;;;;;;;;5126498;27;20395;-46
2023/03/12 18:52:42;;;;;;;7.72;4.57;;;;;;;;;;5125891;27;20425;-46
2023/03/12 18:55:14;;;;;;;8.27;4.93;;;;;;;;;;5127226;27;20027;-46
2023/03/12 18:57:40;;;;;;;8.77;4.72;;;;;;;;;;5125670;27;20019;-45
2023/03/12 19:00:11;;;;;;;5.28;3.55;;;;;;;;;;5124959;27;20035;-46
2023/03/12 19:02:39;;;;;;;5.38;3.45;;;;;;;;;;5126718;27;20031;-48
2023/03/12 19:05:05;;;;;;;3.35;2.30;;;;;;;;;;5126401;27;20027;-46
2023/03/12 19:07:31;;;;;;;3.40;2.15;;;;;;;;;;5126375;27;20074;-45
2023/03/12 19:09:57;;;;;;;7.13;3.50;;;;;;;;;;5127251;27;20019;-47
2023/03/12 19:12:23;;;;;;;13.75;8.30;;;;;;;;;;5124653;27;20027;-45
2023/03/12 19:14:49;;;;;;;19.52;11.32;;;;;;;;;;5128252;27;20114;-45
2023/03/12 19:17:15;;;;;;;24.05;13.25;;;;;;;;;;5127680;27;20056;-45
2023/03/12 19:19:42;;;;;;;28.38;14.90;;;;;;;;;;5126647;27;20026;-47
2023/03/12 19:22:08;;;;;;;32.45;17.42;;;;;;;;;;5125925;27;20058;-47
2023/03/12 19:24:34;;;;;;;26.77;15.02;;;;;;;;;;5127682;27;20031;-45
2023/03/12 19:27:00;;;;;;;21.50;12.57;;;;;;;;;;5127490;27;20033;-48
2023/03/12 19:29:26;;;;;;;18.08;10.23;;;;;;;;;;5125323;27;20019;-45
2023/03/12 19:31:52;;;;;;;18.02;10.05;;;;;;;;;;5127539;27;20132;-45
2023/03/12 19:34:18;;;;;;;17.10;9.23;;;;;;;;;;5127783;27;20536;-48
2023/03/12 19:36:44;;;;;;;13.07;8.27;;;;;;;;;;5127977;27;20406;-47
2023/03/12 19:39:11;;;;;;;14.65;8.30;;;;;;;;;;5126627;27;20535;-45
2023/03/12 19:41:39;;;;;;;12.27;7.43;;;;;;;;;;5126655;27;20083;-46
2023/03/12 19:44:05;;;;;;;12.45;7.20;;;;;;;;;;5126630;27;20028;-45
2023/03/12 19:46:31;;;;;;;11.73;6.63;;;;;;;;;;5125898;27;20045;-45
2023/03/12 19:48:57;;;;;;;10.48;6.75;;;;;;;;;;5125271;27;20035;-47
2023/03/12 19:51:24;;;;;;;10.10;6.50;;;;;;;;;;5124534;27;20070;-46
2023/03/12 19:53:50;;;;;;;8.95;6.03;;;;;;;;;;5126296;27;20031;-49
2023/03/12 19:56:16;;;;;;;8.18;5.28;;;;;;;;;;5124637;27;20028;-48
2023/03/12 19:58:43;;;;;;;8.75;5.43;;;;;;;;;;5123835;28;20023;-47
2023/03/12 20:01:10;;;;;;;8.38;4.80;;;;;;;;;;5125305;28;20066;-45